sensor_id;sensor_type;location;lat;lon;timestamp;P1;durP1;ratioP1;P2;durP2;ratioP2
54855;SDS011;40748;53.168;5.800;2022-11-15T00:06:21;0.40;;;0.20;;
54855;SDS011;40748;53.168;5.800;2022-11-15T00:16:21;1.20;;;0.70;;
54855;SDS011;40748;53.168;5.800;2022-11-15T00:23:51;1.20;;;0.70;;
54855;SDS011;40748;53.168;5.800;2022-11-15T00:26:21;1.20;;;0.70;;
54855;SDS011;40748;53.168;5.800;2022-11-15T00:31:21;1.90;;;1.10;;
54855;SDS011;40748;53.168;5.800;2022-11-15T00:33:51;1.90;;;1.10;;
54855;SDS011;40748;53.168;5.800;2022-11-15T00:36:21;1.90;;;1.10;;
54855;SDS011;40748;53.168;5.800;2022-11-15T00:38:51;1.90;;;1.10;;
54855;SDS011;40748;53.168;5.800;2022-11-15T00:41:21;0.10;;;0.00;;
54855;SDS011;40748;53.168;5.800;2022-11-15T00:43:51;0.10;;;0.00;;
54855;SDS011;40748;53.168;5.800;2022-11-15T00:46:21;0.10;;;0.00;;
54855;SDS011;40748;53.168;5.800;2022-11-15T00:48:51;0.10;;;0.00;;
54855;SDS011;40748;53.168;5.800;2022-11-15T00:51:21;1.80;;;1.10;;
54855;SDS011;40748;53.168;5.800;2022-11-15T00:53:51;1.80;;;1.10;;
54855;SDS011;40748;53.168;5.800;2022-11-15T00:56:21;1.80;;;1.10;;
54855;SDS011;40748;53.168;5.800;2022-11-15T00:58:52;1.80;;;1.10;;
54855;SDS011;40748;53.168;5.800;2022-11-15T01:01:21;1.10;;;0.20;;
54855;SDS011;40748;53.168;5.800;2022-11-15T01:03:51;1.10;;;0.20;;
54855;SDS011;40748;53.168;5.800;2022-11-15T01:06:21;1.10;;;0.20;;
54855;SDS011;40748;53.168;5.800;2022-11-15T01:08:51;1.10;;;0.20;;
54855;SDS011;40748;53.168;5.800;2022-11-15T01:11:21;1.90;;;0.50;;
54855;SDS011;40748;53.168;5.800;2022-11-15T01:13:51;1.90;;;0.50;;
54855;SDS011;40748;53.168;5.800;2022-11-15T01:16:21;1.90;;;0.50;;
54855;SDS011;40748;53.168;5.800;2022-11-15T01:18:51;1.90;;;0.50;;
54855;SDS011;40748;53.168;5.800;2022-11-15T01:21:21;0.70;;;0.50;;
54855;SDS011;40748;53.168;5.800;2022-11-15T01:23:52;0.70;;;0.50;;
54855;SDS011;40748;53.168;5.800;2022-11-15T01:26:22;0.70;;;0.50;;
54855;SDS011;40748;53.168;5.800;2022-11-15T01:28:51;0.70;;;0.50;;
54855;SDS011;40748;53.168;5.800;2022-11-15T01:31:21;2.90;;;0.40;;
54855;SDS011;40748;53.168;5.800;2022-11-15T01:33:51;2.90;;;0.40;;
54855;SDS011;40748;53.168;5.800;2022-11-15T01:36:22;2.90;;;0.40;;
54855;SDS011;40748;53.168;5.800;2022-11-15T01:38:53;2.90;;;0.40;;
54855;SDS011;40748;53.168;5.800;2022-11-15T01:41:23;0.60;;;0.40;;
54855;SDS011;40748;53.168;5.800;2022-11-15T01:43:53;0.60;;;0.40;;
54855;SDS011;40748;53.168;5.800;2022-11-15T01:46:26;0.60;;;0.40;;
54855;SDS011;40748;53.168;5.800;2022-11-15T01:48:53;0.60;;;0.40;;
54855;SDS011;40748;53.168;5.800;2022-11-15T01:53:55;1.80;;;1.30;;
54855;SDS011;40748;53.168;5.800;2022-11-15T01:56:24;1.80;;;1.30;;
54855;SDS011;40748;53.168;5.800;2022-11-15T01:58:55;1.80;;;1.30;;
54855;SDS011;40748;53.168;5.800;2022-11-15T02:01:24;0.50;;;0.20;;
54855;SDS011;40748;53.168;5.800;2022-11-15T02:03:56;0.50;;;0.20;;
54855;SDS011;40748;53.168;5.800;2022-11-15T02:06:21;0.50;;;0.20;;
54855;SDS011;40748;53.168;5.800;2022-11-15T02:08:51;0.50;;;0.20;;
54855;SDS011;40748;53.168;5.800;2022-11-15T02:11:21;3.20;;;0.60;;
54855;SDS011;40748;53.168;5.800;2022-11-15T02:13:51;3.20;;;0.60;;
54855;SDS011;40748;53.168;5.800;2022-11-15T02:16:29;3.20;;;0.60;;
54855;SDS011;40748;53.168;5.800;2022-11-15T02:18:55;3.20;;;0.60;;
54855;SDS011;40748;53.168;5.800;2022-11-15T02:21:28;2.30;;;0.60;;
54855;SDS011;40748;53.168;5.800;2022-11-15T02:26:38;2.30;;;0.60;;
54855;SDS011;40748;53.168;5.800;2022-11-15T02:28:59;2.30;;;0.60;;
54855;SDS011;40748;53.168;5.800;2022-11-15T02:31:26;0.50;;;0.20;;
54855;SDS011;40748;53.168;5.800;2022-11-15T02:33:56;0.50;;;0.20;;
54855;SDS011;40748;53.168;5.800;2022-11-15T02:38:56;0.50;;;0.20;;
54855;SDS011;40748;53.168;5.800;2022-11-15T02:43:58;0.40;;;0.10;;
54855;SDS011;40748;53.168;5.800;2022-11-15T02:46:24;0.40;;;0.10;;
54855;SDS011;40748;53.168;5.800;2022-11-15T02:48:51;0.40;;;0.10;;
54855;SDS011;40748;53.168;5.800;2022-11-15T02:51:21;2.00;;;0.80;;
54855;SDS011;40748;53.168;5.800;2022-11-15T02:53:51;2.00;;;0.80;;
54855;SDS011;40748;53.168;5.800;2022-11-15T02:56:21;2.00;;;0.80;;
54855;SDS011;40748;53.168;5.800;2022-11-15T02:59:02;2.00;;;0.80;;
54855;SDS011;40748;53.168;5.800;2022-11-15T03:01:34;0.30;;;0.10;;
54855;SDS011;40748;53.168;5.800;2022-11-15T03:04:00;0.30;;;0.10;;
54855;SDS011;40748;53.168;5.800;2022-11-15T03:06:27;0.30;;;0.10;;
54855;SDS011;40748;53.168;5.800;2022-11-15T03:09:00;0.30;;;0.10;;
54855;SDS011;40748;53.168;5.800;2022-11-15T03:11:22;0.30;;;0.20;;
54855;SDS011;40748;53.168;5.800;2022-11-15T03:13:57;0.30;;;0.20;;
54855;SDS011;40748;53.168;5.800;2022-11-15T03:18:55;0.30;;;0.20;;
54855;SDS011;40748;53.168;5.800;2022-11-15T03:21:22;0.70;;;0.30;;
54855;SDS011;40748;53.168;5.800;2022-11-15T03:23:52;0.70;;;0.30;;
54855;SDS011;40748;53.168;5.800;2022-11-15T03:26:23;0.70;;;0.30;;
54855;SDS011;40748;53.168;5.800;2022-11-15T03:28:54;0.70;;;0.30;;
54855;SDS011;40748;53.168;5.800;2022-11-15T03:31:25;0.70;;;0.20;;
54855;SDS011;40748;53.168;5.800;2022-11-15T03:33:53;0.70;;;0.20;;
54855;SDS011;40748;53.168;5.800;2022-11-15T03:36:22;0.70;;;0.20;;
54855;SDS011;40748;53.168;5.800;2022-11-15T03:38:54;0.70;;;0.20;;
54855;SDS011;40748;53.168;5.800;2022-11-15T03:41:24;1.90;;;0.40;;
54855;SDS011;40748;53.168;5.800;2022-11-15T03:43:54;1.90;;;0.40;;
54855;SDS011;40748;53.168;5.800;2022-11-15T03:46:25;1.90;;;0.40;;
54855;SDS011;40748;53.168;5.800;2022-11-15T03:48:53;1.90;;;0.40;;
54855;SDS011;40748;53.168;5.800;2022-11-15T03:51:21;1.30;;;0.40;;
54855;SDS011;40748;53.168;5.800;2022-11-15T03:53:51;1.30;;;0.40;;
54855;SDS011;40748;53.168;5.800;2022-11-15T03:56:21;1.30;;;0.40;;
54855;SDS011;40748;53.168;5.800;2022-11-15T03:58:51;1.30;;;0.40;;
54855;SDS011;40748;53.168;5.800;2022-11-15T04:01:21;0.50;;;0.40;;
54855;SDS011;40748;53.168;5.800;2022-11-15T04:03:51;0.50;;;0.40;;
54855;SDS011;40748;53.168;5.800;2022-11-15T04:06:21;0.50;;;0.40;;
54855;SDS011;40748;53.168;5.800;2022-11-15T04:08:51;0.50;;;0.40;;
54855;SDS011;40748;53.168;5.800;2022-11-15T04:13:51;1.20;;;0.30;;
54855;SDS011;40748;53.168;5.800;2022-11-15T04:16:21;1.20;;;0.30;;
54855;SDS011;40748;53.168;5.800;2022-11-15T04:18:51;1.20;;;0.30;;
54855;SDS011;40748;53.168;5.800;2022-11-15T04:21:21;1.10;;;0.50;;
54855;SDS011;40748;53.168;5.800;2022-11-15T04:23:51;1.10;;;0.50;;
54855;SDS011;40748;53.168;5.800;2022-11-15T04:26:22;1.10;;;0.50;;
54855;SDS011;40748;53.168;5.800;2022-11-15T04:28:51;1.10;;;0.50;;
54855;SDS011;40748;53.168;5.800;2022-11-15T04:31:21;0.50;;;0.40;;
54855;SDS011;40748;53.168;5.800;2022-11-15T04:33:51;0.50;;;0.40;;
54855;SDS011;40748;53.168;5.800;2022-11-15T04:36:21;0.50;;;0.40;;
54855;SDS011;40748;53.168;5.800;2022-11-15T04:38:51;0.50;;;0.40;;
54855;SDS011;40748;53.168;5.800;2022-11-15T04:41:21;0.70;;;0.40;;
54855;SDS011;40748;53.168;5.800;2022-11-15T04:43:51;0.70;;;0.40;;
54855;SDS011;40748;53.168;5.800;2022-11-15T04:46:21;0.70;;;0.40;;
54855;SDS011;40748;53.168;5.800;2022-11-15T04:48:52;0.70;;;0.40;;
54855;SDS011;40748;53.168;5.800;2022-11-15T04:51:21;0.30;;;0.10;;
54855;SDS011;40748;53.168;5.800;2022-11-15T04:53:51;0.30;;;0.10;;
54855;SDS011;40748;53.168;5.800;2022-11-15T04:56:21;0.30;;;0.10;;
54855;SDS011;40748;53.168;5.800;2022-11-15T04:58:51;0.30;;;0.10;;
54855;SDS011;40748;53.168;5.800;2022-11-15T05:01:21;0.90;;;0.50;;
54855;SDS011;40748;53.168;5.800;2022-11-15T05:03:51;0.90;;;0.50;;
54855;SDS011;40748;53.168;5.800;2022-11-15T05:06:21;0.90;;;0.50;;
54855;SDS011;40748;53.168;5.800;2022-11-15T05:08:51;0.90;;;0.50;;
54855;SDS011;40748;53.168;5.800;2022-11-15T05:11:21;0.30;;;0.10;;
54855;SDS011;40748;53.168;5.800;2022-11-15T05:13:52;0.30;;;0.10;;
54855;SDS011;40748;53.168;5.800;2022-11-15T05:16:21;0.30;;;0.10;;
54855;SDS011;40748;53.168;5.800;2022-11-15T05:21:21;1.50;;;1.00;;
54855;SDS011;40748;53.168;5.800;2022-11-15T05:23:51;1.50;;;1.00;;
54855;SDS011;40748;53.168;5.800;2022-11-15T05:26:21;1.50;;;1.00;;
54855;SDS011;40748;53.168;5.800;2022-11-15T05:28:52;1.50;;;1.00;;
54855;SDS011;40748;53.168;5.800;2022-11-15T05:31:21;0.90;;;0.60;;
54855;SDS011;40748;53.168;5.800;2022-11-15T05:33:52;0.90;;;0.60;;
54855;SDS011;40748;53.168;5.800;2022-11-15T05:36:27;0.90;;;0.60;;
54855;SDS011;40748;53.168;5.800;2022-11-15T05:38:51;0.90;;;0.60;;
54855;SDS011;40748;53.168;5.800;2022-11-15T05:41:26;1.00;;;0.80;;
54855;SDS011;40748;53.168;5.800;2022-11-15T05:43:51;1.00;;;0.80;;
54855;SDS011;40748;53.168;5.800;2022-11-15T05:46:21;1.00;;;0.80;;
54855;SDS011;40748;53.168;5.800;2022-11-15T05:48:52;1.00;;;0.80;;
54855;SDS011;40748;53.168;5.800;2022-11-15T05:51:22;0.60;;;0.40;;
54855;SDS011;40748;53.168;5.800;2022-11-15T05:53:52;0.60;;;0.40;;
54855;SDS011;40748;53.168;5.800;2022-11-15T05:56:21;0.60;;;0.40;;
54855;SDS011;40748;53.168;5.800;2022-11-15T05:58:53;0.60;;;0.40;;
54855;SDS011;40748;53.168;5.800;2022-11-15T06:01:21;0.30;;;0.20;;
54855;SDS011;40748;53.168;5.800;2022-11-15T06:03:51;0.30;;;0.20;;
54855;SDS011;40748;53.168;5.800;2022-11-15T06:06:21;0.30;;;0.20;;
54855;SDS011;40748;53.168;5.800;2022-11-15T06:08:51;0.30;;;0.20;;
54855;SDS011;40748;53.168;5.800;2022-11-15T06:11:21;0.70;;;0.50;;
54855;SDS011;40748;53.168;5.800;2022-11-15T06:13:51;0.70;;;0.50;;
54855;SDS011;40748;53.168;5.800;2022-11-15T06:16:21;0.70;;;0.50;;
54855;SDS011;40748;53.168;5.800;2022-11-15T06:18:51;0.70;;;0.50;;
54855;SDS011;40748;53.168;5.800;2022-11-15T06:21:21;0.70;;;0.50;;
54855;SDS011;40748;53.168;5.800;2022-11-15T06:23:51;0.70;;;0.50;;
54855;SDS011;40748;53.168;5.800;2022-11-15T06:26:21;0.70;;;0.50;;
54855;SDS011;40748;53.168;5.800;2022-11-15T06:28:51;0.70;;;0.50;;
54855;SDS011;40748;53.168;5.800;2022-11-15T06:33:51;2.10;;;0.70;;
54855;SDS011;40748;53.168;5.800;2022-11-15T06:36:21;2.10;;;0.70;;
54855;SDS011;40748;53.168;5.800;2022-11-15T06:38:51;2.10;;;0.70;;
54855;SDS011;40748;53.168;5.800;2022-11-15T06:41:21;1.10;;;0.50;;
54855;SDS011;40748;53.168;5.800;2022-11-15T06:43:51;1.10;;;0.50;;
54855;SDS011;40748;53.168;5.800;2022-11-15T06:46:21;1.10;;;0.50;;
54855;SDS011;40748;53.168;5.800;2022-11-15T06:48:52;1.10;;;0.50;;
54855;SDS011;40748;53.168;5.800;2022-11-15T06:51:21;0.90;;;0.40;;
54855;SDS011;40748;53.168;5.800;2022-11-15T06:53:52;0.90;;;0.40;;
54855;SDS011;40748;53.168;5.800;2022-11-15T06:56:21;0.90;;;0.40;;
54855;SDS011;40748;53.168;5.800;2022-11-15T07:01:21;0.90;;;0.60;;
54855;SDS011;40748;53.168;5.800;2022-11-15T07:03:51;0.90;;;0.60;;
54855;SDS011;40748;53.168;5.800;2022-11-15T07:08:51;0.90;;;0.60;;
54855;SDS011;40748;53.168;5.800;2022-11-15T07:11:21;0.80;;;0.50;;
54855;SDS011;40748;53.168;5.800;2022-11-15T07:13:51;0.80;;;0.50;;
54855;SDS011;40748;53.168;5.800;2022-11-15T07:16:21;0.80;;;0.50;;
54855;SDS011;40748;53.168;5.800;2022-11-15T07:18:51;0.80;;;0.50;;
54855;SDS011;40748;53.168;5.800;2022-11-15T07:23:51;0.80;;;0.70;;
54855;SDS011;40748;53.168;5.800;2022-11-15T07:28:51;0.80;;;0.70;;
54855;SDS011;40748;53.168;5.800;2022-11-15T07:31:21;1.90;;;0.70;;
54855;SDS011;40748;53.168;5.800;2022-11-15T07:33:51;1.90;;;0.70;;
54855;SDS011;40748;53.168;5.800;2022-11-15T07:36:21;1.90;;;0.70;;
54855;SDS011;40748;53.168;5.800;2022-11-15T07:38:51;1.90;;;0.70;;
54855;SDS011;40748;53.168;5.800;2022-11-15T07:41:21;6.00;;;1.10;;
54855;SDS011;40748;53.168;5.800;2022-11-15T07:43:51;6.00;;;1.10;;
54855;SDS011;40748;53.168;5.800;2022-11-15T07:46:21;6.00;;;1.10;;
54855;SDS011;40748;53.168;5.800;2022-11-15T07:48:51;6.00;;;1.10;;
54855;SDS011;40748;53.168;5.800;2022-11-15T07:51:21;2.00;;;1.00;;
54855;SDS011;40748;53.168;5.800;2022-11-15T07:53:51;2.00;;;1.00;;
54855;SDS011;40748;53.168;5.800;2022-11-15T07:56:21;2.00;;;1.00;;
54855;SDS011;40748;53.168;5.800;2022-11-15T07:58:51;2.00;;;1.00;;
54855;SDS011;40748;53.168;5.800;2022-11-15T08:01:21;1.80;;;0.60;;
54855;SDS011;40748;53.168;5.800;2022-11-15T08:03:51;1.80;;;0.60;;
54855;SDS011;40748;53.168;5.800;2022-11-15T08:06:21;1.80;;;0.60;;
54855;SDS011;40748;53.168;5.800;2022-11-15T08:08:51;1.80;;;0.60;;
54855;SDS011;40748;53.168;5.800;2022-11-15T08:11:21;0.80;;;0.30;;
54855;SDS011;40748;53.168;5.800;2022-11-15T08:13:51;0.80;;;0.30;;
54855;SDS011;40748;53.168;5.800;2022-11-15T08:16:21;0.80;;;0.30;;
54855;SDS011;40748;53.168;5.800;2022-11-15T08:18:51;0.80;;;0.30;;
54855;SDS011;40748;53.168;5.800;2022-11-15T08:21:22;1.00;;;0.60;;
54855;SDS011;40748;53.168;5.800;2022-11-15T08:23:51;1.00;;;0.60;;
54855;SDS011;40748;53.168;5.800;2022-11-15T08:28:51;1.00;;;0.60;;
54855;SDS011;40748;53.168;5.800;2022-11-15T08:31:21;3.40;;;1.30;;
54855;SDS011;40748;53.168;5.800;2022-11-15T08:33:51;3.40;;;1.30;;
54855;SDS011;40748;53.168;5.800;2022-11-15T08:36:21;3.40;;;1.30;;
54855;SDS011;40748;53.168;5.800;2022-11-15T08:38:51;3.40;;;1.30;;
54855;SDS011;40748;53.168;5.800;2022-11-15T08:41:25;2.10;;;1.60;;
54855;SDS011;40748;53.168;5.800;2022-11-15T08:43:51;2.10;;;1.60;;
54855;SDS011;40748;53.168;5.800;2022-11-15T08:46:21;2.10;;;1.60;;
54855;SDS011;40748;53.168;5.800;2022-11-15T08:48:51;2.10;;;1.60;;
54855;SDS011;40748;53.168;5.800;2022-11-15T08:51:21;2.30;;;1.30;;
54855;SDS011;40748;53.168;5.800;2022-11-15T08:53:51;2.30;;;1.30;;
54855;SDS011;40748;53.168;5.800;2022-11-15T08:56:21;2.30;;;1.30;;
54855;SDS011;40748;53.168;5.800;2022-11-15T08:58:51;2.30;;;1.30;;
54855;SDS011;40748;53.168;5.800;2022-11-15T09:01:22;1.70;;;0.40;;
54855;SDS011;40748;53.168;5.800;2022-11-15T09:06:21;1.70;;;0.40;;
54855;SDS011;40748;53.168;5.800;2022-11-15T09:08:51;1.70;;;0.40;;
54855;SDS011;40748;53.168;5.800;2022-11-15T09:11:21;1.60;;;1.00;;
54855;SDS011;40748;53.168;5.800;2022-11-15T09:13:51;1.60;;;1.00;;
54855;SDS011;40748;53.168;5.800;2022-11-15T09:16:21;1.60;;;1.00;;
54855;SDS011;40748;53.168;5.800;2022-11-15T09:18:52;1.60;;;1.00;;
54855;SDS011;40748;53.168;5.800;2022-11-15T09:23:52;2.90;;;1.50;;
54855;SDS011;40748;53.168;5.800;2022-11-15T09:26:21;2.90;;;1.50;;
54855;SDS011;40748;53.168;5.800;2022-11-15T09:28:51;2.90;;;1.50;;
54855;SDS011;40748;53.168;5.800;2022-11-15T09:31:21;1.50;;;0.50;;
54855;SDS011;40748;53.168;5.800;2022-11-15T09:33:51;1.50;;;0.50;;
54855;SDS011;40748;53.168;5.800;2022-11-15T09:36:21;1.50;;;0.50;;
54855;SDS011;40748;53.168;5.800;2022-11-15T09:38:51;1.50;;;0.50;;
54855;SDS011;40748;53.168;5.800;2022-11-15T09:41:32;1.10;;;0.90;;
54855;SDS011;40748;53.168;5.800;2022-11-15T09:44:00;1.10;;;0.90;;
54855;SDS011;40748;53.168;5.800;2022-11-15T09:46:28;1.10;;;0.90;;
54855;SDS011;40748;53.168;5.800;2022-11-15T09:48:53;1.10;;;0.90;;
54855;SDS011;40748;53.168;5.800;2022-11-15T09:51:26;2.50;;;0.70;;
54855;SDS011;40748;53.168;5.800;2022-11-15T09:53:57;2.50;;;0.70;;
54855;SDS011;40748;53.168;5.800;2022-11-15T09:56:23;2.50;;;0.70;;
54855;SDS011;40748;53.168;5.800;2022-11-15T09:58:56;2.50;;;0.70;;
54855;SDS011;40748;53.168;5.800;2022-11-15T10:01:32;2.90;;;1.00;;
54855;SDS011;40748;53.168;5.800;2022-11-15T10:03:51;2.90;;;1.00;;
54855;SDS011;40748;53.168;5.800;2022-11-15T10:06:23;2.90;;;1.00;;
54855;SDS011;40748;53.168;5.800;2022-11-15T10:08:58;2.90;;;1.00;;
54855;SDS011;40748;53.168;5.800;2022-11-15T10:13:54;1.20;;;0.90;;
54855;SDS011;40748;53.168;5.800;2022-11-15T10:16:37;1.20;;;0.90;;
54855;SDS011;40748;53.168;5.800;2022-11-15T10:18:59;1.20;;;0.90;;
54855;SDS011;40748;53.168;5.800;2022-11-15T10:21:24;1.90;;;0.50;;
54855;SDS011;40748;53.168;5.800;2022-11-15T10:23:53;1.90;;;0.50;;
54855;SDS011;40748;53.168;5.800;2022-11-15T10:26:23;1.90;;;0.50;;
54855;SDS011;40748;53.168;5.800;2022-11-15T10:28:51;1.90;;;0.50;;
54855;SDS011;40748;53.168;5.800;2022-11-15T10:31:23;3.30;;;0.90;;
54855;SDS011;40748;53.168;5.800;2022-11-15T10:33:59;3.30;;;0.90;;
54855;SDS011;40748;53.168;5.800;2022-11-15T10:36:22;3.30;;;0.90;;
54855;SDS011;40748;53.168;5.800;2022-11-15T10:38:55;3.30;;;0.90;;
54855;SDS011;40748;53.168;5.800;2022-11-15T10:41:28;1.30;;;0.70;;
54855;SDS011;40748;53.168;5.800;2022-11-15T10:44:03;1.30;;;0.70;;
54855;SDS011;40748;53.168;5.800;2022-11-15T10:46:23;1.30;;;0.70;;
54855;SDS011;40748;53.168;5.800;2022-11-15T10:48:51;1.30;;;0.70;;
54855;SDS011;40748;53.168;5.800;2022-11-15T10:51:25;0.90;;;0.50;;
54855;SDS011;40748;53.168;5.800;2022-11-15T10:56:23;0.90;;;0.50;;
54855;SDS011;40748;53.168;5.800;2022-11-15T10:58:54;0.90;;;0.50;;
54855;SDS011;40748;53.168;5.800;2022-11-15T11:01:23;1.30;;;0.60;;
54855;SDS011;40748;53.168;5.800;2022-11-15T11:04:00;1.30;;;0.60;;
54855;SDS011;40748;53.168;5.800;2022-11-15T11:06:21;1.30;;;0.60;;
54855;SDS011;40748;53.168;5.800;2022-11-15T11:08:55;1.30;;;0.60;;
54855;SDS011;40748;53.168;5.800;2022-11-15T11:11:21;2.40;;;1.10;;
54855;SDS011;40748;53.168;5.800;2022-11-15T11:13:51;2.40;;;1.10;;
54855;SDS011;40748;53.168;5.800;2022-11-15T11:16:36;2.40;;;1.10;;
54855;SDS011;40748;53.168;5.800;2022-11-15T11:18:59;2.40;;;1.10;;
54855;SDS011;40748;53.168;5.800;2022-11-15T11:21:34;1.30;;;0.80;;
54855;SDS011;40748;53.168;5.800;2022-11-15T11:23:54;1.30;;;0.80;;
54855;SDS011;40748;53.168;5.800;2022-11-15T11:26:35;1.30;;;0.80;;
54855;SDS011;40748;53.168;5.800;2022-11-15T11:28:56;1.30;;;0.80;;
54855;SDS011;40748;53.168;5.800;2022-11-15T11:31:28;0.40;;;0.10;;
54855;SDS011;40748;53.168;5.800;2022-11-15T11:34:01;0.40;;;0.10;;
54855;SDS011;40748;53.168;5.800;2022-11-15T11:36:26;0.40;;;0.10;;
54855;SDS011;40748;53.168;5.800;2022-11-15T11:38:58;0.40;;;0.10;;
54855;SDS011;40748;53.168;5.800;2022-11-15T11:41:38;1.10;;;0.30;;
54855;SDS011;40748;53.168;5.800;2022-11-15T11:44:00;1.10;;;0.30;;
54855;SDS011;40748;53.168;5.800;2022-11-15T11:46:35;1.10;;;0.30;;
54855;SDS011;40748;53.168;5.800;2022-11-15T11:48:57;1.10;;;0.30;;
54855;SDS011;40748;53.168;5.800;2022-11-15T11:51:24;0.80;;;0.50;;
54855;SDS011;40748;53.168;5.800;2022-11-15T11:53:55;0.80;;;0.50;;
54855;SDS011;40748;53.168;5.800;2022-11-15T11:56:25;0.80;;;0.50;;
54855;SDS011;40748;53.168;5.800;2022-11-15T11:58:55;0.80;;;0.50;;
54855;SDS011;40748;53.168;5.800;2022-11-15T12:01:23;0.80;;;0.30;;
54855;SDS011;40748;53.168;5.800;2022-11-15T12:03:55;0.80;;;0.30;;
54855;SDS011;40748;53.168;5.800;2022-11-15T12:06:27;0.80;;;0.30;;
54855;SDS011;40748;53.168;5.800;2022-11-15T12:08:54;0.80;;;0.30;;
54855;SDS011;40748;53.168;5.800;2022-11-15T12:11:26;5.30;;;2.40;;
54855;SDS011;40748;53.168;5.800;2022-11-15T12:13:58;5.30;;;2.40;;
54855;SDS011;40748;53.168;5.800;2022-11-15T12:16:25;5.30;;;2.40;;
54855;SDS011;40748;53.168;5.800;2022-11-15T12:18:54;5.30;;;2.40;;
54855;SDS011;40748;53.168;5.800;2022-11-15T12:23:54;1.30;;;0.30;;
54855;SDS011;40748;53.168;5.800;2022-11-15T12:26:25;1.30;;;0.30;;
54855;SDS011;40748;53.168;5.800;2022-11-15T12:28:54;1.30;;;0.30;;
54855;SDS011;40748;53.168;5.800;2022-11-15T12:36:35;4.10;;;0.30;;
54855;SDS011;40748;53.168;5.800;2022-11-15T12:38:55;4.10;;;0.30;;
54855;SDS011;40748;53.168;5.800;2022-11-15T12:41:23;0.60;;;0.30;;
54855;SDS011;40748;53.168;5.800;2022-11-15T12:43:51;0.60;;;0.30;;
54855;SDS011;40748;53.168;5.800;2022-11-15T12:48:54;0.60;;;0.30;;
54855;SDS011;40748;53.168;5.800;2022-11-15T12:53:51;0.50;;;0.20;;
54855;SDS011;40748;53.168;5.800;2022-11-15T12:56:23;0.50;;;0.20;;
54855;SDS011;40748;53.168;5.800;2022-11-15T12:58:54;0.50;;;0.20;;
54855;SDS011;40748;53.168;5.800;2022-11-15T13:06:37;0.30;;;0.10;;
54855;SDS011;40748;53.168;5.800;2022-11-15T13:08:51;0.30;;;0.10;;
54855;SDS011;40748;53.168;5.800;2022-11-15T13:13:51;0.10;;;0.00;;
54855;SDS011;40748;53.168;5.800;2022-11-15T13:16:21;0.10;;;0.00;;
54855;SDS011;40748;53.168;5.800;2022-11-15T13:18:54;0.10;;;0.00;;
54855;SDS011;40748;53.168;5.800;2022-11-15T13:21:23;0.10;;;0.00;;
54855;SDS011;40748;53.168;5.800;2022-11-15T13:23:53;0.10;;;0.00;;
54855;SDS011;40748;53.168;5.800;2022-11-15T13:26:22;0.10;;;0.00;;
54855;SDS011;40748;53.168;5.800;2022-11-15T13:28:51;0.10;;;0.00;;
54855;SDS011;40748;53.168;5.800;2022-11-15T13:31:25;0.40;;;0.20;;
54855;SDS011;40748;53.168;5.800;2022-11-15T13:33:52;0.40;;;0.20;;
54855;SDS011;40748;53.168;5.800;2022-11-15T13:36:24;0.40;;;0.20;;
54855;SDS011;40748;53.168;5.800;2022-11-15T13:38:58;0.40;;;0.20;;
54855;SDS011;40748;53.168;5.800;2022-11-15T13:41:23;0.40;;;0.10;;
54855;SDS011;40748;53.168;5.800;2022-11-15T13:43:53;0.40;;;0.10;;
54855;SDS011;40748;53.168;5.800;2022-11-15T13:46:23;0.40;;;0.10;;
54855;SDS011;40748;53.168;5.800;2022-11-15T13:48:53;0.40;;;0.10;;
54855;SDS011;40748;53.168;5.800;2022-11-15T13:51:25;0.50;;;0.10;;
54855;SDS011;40748;53.168;5.800;2022-11-15T13:53:56;0.50;;;0.10;;
54855;SDS011;40748;53.168;5.800;2022-11-15T13:56:21;0.50;;;0.10;;
54855;SDS011;40748;53.168;5.800;2022-11-15T13:58:51;0.50;;;0.10;;
54855;SDS011;40748;53.168;5.800;2022-11-15T14:01:22;0.10;;;0.00;;
54855;SDS011;40748;53.168;5.800;2022-11-15T14:03:54;0.10;;;0.00;;
54855;SDS011;40748;53.168;5.800;2022-11-15T14:06:23;0.10;;;0.00;;
54855;SDS011;40748;53.168;5.800;2022-11-15T14:09:03;0.10;;;0.00;;
54855;SDS011;40748;53.168;5.800;2022-11-15T14:11:21;0.50;;;0.20;;
54855;SDS011;40748;53.168;5.800;2022-11-15T14:14:04;0.50;;;0.20;;
54855;SDS011;40748;53.168;5.800;2022-11-15T14:16:33;0.50;;;0.20;;
54855;SDS011;40748;53.168;5.800;2022-11-15T14:18:52;0.50;;;0.20;;
54855;SDS011;40748;53.168;5.800;2022-11-15T14:28:51;0.10;;;0.00;;
54855;SDS011;40748;53.168;5.800;2022-11-15T14:31:21;0.10;;;0.00;;
54855;SDS011;40748;53.168;5.800;2022-11-15T14:33:51;0.10;;;0.00;;
54855;SDS011;40748;53.168;5.800;2022-11-15T14:36:21;0.10;;;0.00;;
54855;SDS011;40748;53.168;5.800;2022-11-15T14:38:51;0.10;;;0.00;;
54855;SDS011;40748;53.168;5.800;2022-11-15T14:41:23;0.30;;;0.10;;
54855;SDS011;40748;53.168;5.800;2022-11-15T14:43:52;0.30;;;0.10;;
54855;SDS011;40748;53.168;5.800;2022-11-15T14:46:21;0.30;;;0.10;;
54855;SDS011;40748;53.168;5.800;2022-11-15T14:48:51;0.30;;;0.10;;
54855;SDS011;40748;53.168;5.800;2022-11-15T14:51:22;0.10;;;0.00;;
54855;SDS011;40748;53.168;5.800;2022-11-15T14:53:51;0.10;;;0.00;;
54855;SDS011;40748;53.168;5.800;2022-11-15T14:56:21;0.10;;;0.00;;
54855;SDS011;40748;53.168;5.800;2022-11-15T14:58:51;0.10;;;0.00;;
54855;SDS011;40748;53.168;5.800;2022-11-15T15:01:24;0.30;;;0.10;;
54855;SDS011;40748;53.168;5.800;2022-11-15T15:03:52;0.30;;;0.10;;
54855;SDS011;40748;53.168;5.800;2022-11-15T15:06:21;0.30;;;0.10;;
54855;SDS011;40748;53.168;5.800;2022-11-15T15:08:51;0.30;;;0.10;;
54855;SDS011;40748;53.168;5.800;2022-11-15T15:11:23;0.10;;;0.00;;
54855;SDS011;40748;53.168;5.800;2022-11-15T15:13:52;0.10;;;0.00;;
54855;SDS011;40748;53.168;5.800;2022-11-15T15:16:22;0.10;;;0.00;;
54855;SDS011;40748;53.168;5.800;2022-11-15T15:18:51;0.10;;;0.00;;
54855;SDS011;40748;53.168;5.800;2022-11-15T15:21:22;0.10;;;0.00;;
54855;SDS011;40748;53.168;5.800;2022-11-15T15:23:52;0.10;;;0.00;;
54855;SDS011;40748;53.168;5.800;2022-11-15T15:26:21;0.10;;;0.00;;
54855;SDS011;40748;53.168;5.800;2022-11-15T15:28:51;0.10;;;0.00;;
54855;SDS011;40748;53.168;5.800;2022-11-15T15:31:21;1.10;;;0.50;;
54855;SDS011;40748;53.168;5.800;2022-11-15T15:33:51;1.10;;;0.50;;
54855;SDS011;40748;53.168;5.800;2022-11-15T15:36:21;1.10;;;0.50;;
54855;SDS011;40748;53.168;5.800;2022-11-15T15:38:51;1.10;;;0.50;;
54855;SDS011;40748;53.168;5.800;2022-11-15T15:41:22;0.20;;;0.00;;
54855;SDS011;40748;53.168;5.800;2022-11-15T15:43:51;0.20;;;0.00;;
54855;SDS011;40748;53.168;5.800;2022-11-15T15:46:21;0.20;;;0.00;;
54855;SDS011;40748;53.168;5.800;2022-11-15T15:48:51;0.20;;;0.00;;
54855;SDS011;40748;53.168;5.800;2022-11-15T15:51:21;0.20;;;0.00;;
54855;SDS011;40748;53.168;5.800;2022-11-15T15:53:51;0.20;;;0.00;;
54855;SDS011;40748;53.168;5.800;2022-11-15T15:56:21;0.20;;;0.00;;
54855;SDS011;40748;53.168;5.800;2022-11-15T15:58:51;0.20;;;0.00;;
54855;SDS011;40748;53.168;5.800;2022-11-15T16:01:21;0.40;;;0.10;;
54855;SDS011;40748;53.168;5.800;2022-11-15T16:03:51;0.40;;;0.10;;
54855;SDS011;40748;53.168;5.800;2022-11-15T16:06:34;0.40;;;0.10;;
54855;SDS011;40748;53.168;5.800;2022-11-15T16:08:51;0.40;;;0.10;;
54855;SDS011;40748;53.168;5.800;2022-11-15T16:16:21;0.10;;;0.00;;
54855;SDS011;40748;53.168;5.800;2022-11-15T16:23:51;0.30;;;0.10;;
54855;SDS011;40748;53.168;5.800;2022-11-15T16:26:24;0.30;;;0.10;;
54855;SDS011;40748;53.168;5.800;2022-11-15T16:28:51;0.30;;;0.10;;
54855;SDS011;40748;53.168;5.800;2022-11-15T16:31:21;0.40;;;0.10;;
54855;SDS011;40748;53.168;5.800;2022-11-15T16:33:51;0.40;;;0.10;;
54855;SDS011;40748;53.168;5.800;2022-11-15T16:36:23;0.40;;;0.10;;
54855;SDS011;40748;53.168;5.800;2022-11-15T16:38:52;0.40;;;0.10;;
54855;SDS011;40748;53.168;5.800;2022-11-15T16:41:21;0.20;;;0.00;;
54855;SDS011;40748;53.168;5.800;2022-11-15T16:46:23;0.20;;;0.00;;